createdAt,value
2023-02-08T00:08:23.645Z,99.90
2023-02-08T00:15:47.673Z,99.90
2023-02-08T00:20:44.281Z,99.90
2023-02-08T00:23:13.578Z,99.90
2023-02-08T00:28:13.909Z,99.90
2023-02-08T00:35:37.981Z,99.90
2023-02-08T00:40:33.285Z,99.90
2023-02-08T00:52:51.617Z,99.90
2023-02-08T01:39:40.391Z,99.90
2023-02-08T01:45:13.023Z,99.90
2023-02-08T01:50:08.946Z,99.90
2023-02-08T01:52:36.695Z,99.90
2023-02-08T01:55:11.562Z,99.90
2023-02-08T01:57:38.979Z,99.90
2023-02-08T02:00:18.448Z,99.90
2023-02-08T02:07:45.702Z,99.90
2023-02-08T02:10:29.986Z,99.90
2023-02-08T02:13:02.703Z,99.90
2023-02-08T02:15:30.446Z,99.90
2023-02-08T02:17:58.239Z,99.90
2023-02-08T02:20:47.040Z,99.90
2023-02-08T02:23:14.075Z,99.90
2023-02-08T02:26:20.253Z,99.90
2023-02-08T02:31:49.205Z,99.90
2023-02-08T02:34:29.955Z,99.90
2023-02-08T02:37:34.257Z,99.90
2023-02-08T02:40:15.822Z,99.90
2023-02-08T02:43:35.320Z,99.90
2023-02-08T02:46:30.021Z,99.90
2023-02-08T02:49:02.703Z,99.90
2023-02-08T02:51:36.199Z,99.90
2023-02-08T02:54:34.165Z,99.90
2023-02-08T02:57:05.849Z,99.90
2023-02-08T02:59:37.814Z,99.90
2023-02-08T03:02:05.423Z,99.90
2023-02-08T03:04:35.762Z,99.90
2023-02-08T03:07:21.256Z,99.90
2023-02-08T03:10:14.273Z,99.90
2023-02-08T03:13:05.516Z,99.90
2023-02-08T03:15:58.591Z,99.90
2023-02-08T03:21:23.046Z,99.90
2023-02-08T03:24:18.520Z,99.90
2023-02-08T03:27:03.858Z,99.90
2023-02-08T03:29:49.003Z,99.90
2023-02-08T03:34:44.720Z,99.90
2023-02-08T03:37:35.213Z,99.90
2023-02-08T03:40:14.812Z,99.90
2023-02-08T03:45:18.672Z,99.90
2023-02-08T03:47:49.745Z,99.90
2023-02-08T03:50:18.796Z,99.90
2023-02-08T03:52:50.971Z,99.90
2023-02-08T03:55:28.463Z,99.90
2023-02-08T03:58:01.247Z,99.90
2023-02-08T04:00:30.877Z,99.90
2023-02-08T04:03:04.440Z,99.90
2023-02-08T04:05:31.810Z,99.90
2023-02-08T04:07:59.270Z,99.90
2023-02-08T04:10:26.709Z,99.90
2023-02-08T04:12:54.477Z,99.90
2023-02-08T04:22:45.189Z,99.90
2023-02-08T04:25:12.705Z,99.90
2023-02-08T04:30:08.061Z,99.90
2023-02-08T04:32:35.536Z,99.90
2023-02-08T04:35:03.116Z,99.90
2023-02-08T04:39:59.730Z,99.90
2023-02-08T04:42:27.158Z,99.90
2023-02-08T04:44:54.441Z,99.90
2023-02-08T04:47:22.096Z,99.90
2023-02-08T04:49:51.720Z,99.90
2023-02-08T04:52:19.366Z,99.90
2023-02-08T04:54:47.269Z,99.90
2023-02-08T04:59:42.975Z,99.90
2023-02-08T05:02:10.516Z,99.90
2023-02-08T05:04:37.773Z,99.90
2023-02-08T05:09:33.085Z,99.90
2023-02-08T05:12:00.798Z,99.90
2023-02-08T05:14:28.930Z,99.90
2023-02-08T05:16:56.466Z,99.90
2023-02-08T05:24:19.011Z,99.90
2023-02-08T05:29:15.389Z,99.90
2023-02-08T05:31:43.197Z,99.90
2023-02-08T05:34:10.696Z,99.90
2023-02-08T05:36:38.325Z,99.90
2023-02-08T05:41:33.668Z,99.90
2023-02-08T05:46:28.545Z,99.90
2023-02-08T05:48:56.338Z,99.90
2023-02-08T05:51:23.872Z,99.90
2023-02-08T05:53:51.318Z,99.90
2023-02-08T05:58:46.033Z,99.90
2023-02-08T06:01:14.205Z,99.90
2023-02-08T06:03:41.925Z,99.90
2023-02-08T06:06:11.347Z,99.90
2023-02-08T06:08:39.610Z,99.90
2023-02-08T06:11:07.999Z,99.90
2023-02-08T06:13:36.405Z,99.90
2023-02-08T06:16:03.666Z,99.90
2023-02-08T06:18:32.351Z,99.90
2023-02-08T06:20:59.799Z,99.90
2023-02-08T06:28:22.799Z,99.90
2023-02-08T06:30:51.316Z,99.90
2023-02-08T06:35:47.951Z,99.90
2023-02-08T06:38:15.637Z,99.90
2023-02-08T06:43:10.747Z,99.90
2023-02-08T06:45:38.215Z,99.90
2023-02-08T06:50:33.629Z,99.90
2023-02-08T06:55:28.737Z,99.90
2023-02-08T07:00:24.458Z,99.90
2023-02-08T07:02:52.692Z,99.90
2023-02-08T07:07:49.153Z,99.90
2023-02-08T07:10:17.625Z,99.90
2023-02-08T07:12:44.984Z,99.90
2023-02-08T07:15:13.747Z,99.90
2023-02-08T07:17:41.432Z,99.90
2023-02-08T07:25:10.228Z,99.90
2023-02-08T07:27:40.183Z,99.90
2023-02-08T07:35:06.232Z,99.90
2023-02-08T07:40:01.848Z,99.90
2023-02-08T07:47:25.028Z,99.90
2023-02-08T07:52:20.316Z,99.90
2023-02-08T07:54:47.651Z,99.90
2023-02-08T07:57:21.236Z,99.90
2023-02-08T08:02:16.718Z,99.90
2023-02-08T08:04:44.259Z,99.90
2023-02-08T08:07:11.771Z,99.90
2023-02-08T08:12:07.460Z,99.90
2023-02-08T08:14:35.147Z,99.90
2023-02-08T08:19:30.822Z,97.10
2023-02-08T08:22:00.751Z,96.80
2023-02-08T08:26:56.267Z,91.60
2023-02-08T08:29:25.835Z,90.80
2023-02-08T08:31:53.666Z,81.90
2023-02-08T08:34:29.831Z,84.90
2023-02-08T08:36:58.532Z,87.00
2023-02-08T08:39:29.458Z,87.70
2023-02-08T08:44:29.047Z,90.20
2023-02-08T08:49:25.516Z,90.80
2023-02-08T08:51:52.773Z,90.90
2023-02-08T08:54:20.852Z,91.20
2023-02-08T08:56:48.915Z,90.60
2023-02-08T09:01:44.173Z,92.40
2023-02-08T09:06:39.815Z,90.90
2023-02-08T09:09:07.474Z,91.40
2023-02-08T09:11:35.051Z,91.40
2023-02-08T09:14:04.719Z,91.40
2023-02-08T09:16:33.070Z,91.40
2023-02-08T09:19:07.657Z,91.50
2023-02-08T09:21:35.282Z,92.00
2023-02-08T09:24:06.057Z,90.20
2023-02-08T09:26:34.028Z,91.00
2023-02-08T09:29:01.583Z,88.10
2023-02-08T09:31:31.821Z,89.00
2023-02-08T09:34:01.016Z,88.20
2023-02-08T09:39:01.874Z,83.30
2023-02-08T09:42:08.174Z,84.80
2023-02-08T09:45:13.148Z,85.70
2023-02-08T09:47:50.984Z,82.10
2023-02-08T09:50:27.826Z,82.80
2023-02-08T09:53:15.865Z,87.40
2023-02-08T09:55:59.999Z,88.00
2023-02-08T09:58:36.865Z,86.90
2023-02-08T10:01:07.711Z,89.20
2023-02-08T10:03:42.603Z,90.00
2023-02-08T10:08:40.677Z,87.10
2023-02-08T10:14:11.433Z,89.00
2023-02-08T10:17:01.104Z,90.20
2023-02-08T10:22:31.542Z,91.40
2023-02-08T10:25:17.751Z,90.90
2023-02-08T10:28:19.717Z,91.20
2023-02-08T10:30:53.105Z,90.90
2023-02-08T10:33:33.558Z,91.50
2023-02-08T10:36:01.640Z,90.90
2023-02-08T10:38:45.487Z,91.30
2023-02-08T10:41:19.978Z,91.00
2023-02-08T10:43:54.416Z,91.30
2023-02-08T10:46:32.892Z,92.40
2023-02-08T10:49:28.003Z,91.40
2023-02-08T10:51:56.006Z,91.70
2023-02-08T10:54:23.511Z,90.90
2023-02-08T10:57:02.557Z,91.00
2023-02-08T10:59:32.572Z,91.10
2023-02-08T11:02:00.325Z,90.60
2023-02-08T11:04:28.293Z,90.90
2023-02-08T11:06:56.150Z,90.50
2023-02-08T11:09:31.117Z,90.30
2023-02-08T11:12:03.257Z,91.60
2023-02-08T11:14:47.290Z,91.40
2023-02-08T11:17:34.110Z,91.80
2023-02-08T11:20:01.934Z,90.50
2023-02-08T11:22:34.540Z,91.00
2023-02-08T11:25:08.362Z,90.60
2023-02-08T11:30:16.301Z,90.10
2023-02-08T11:32:46.620Z,90.40
2023-02-08T11:35:21.915Z,90.30
2023-02-08T11:37:59.759Z,90.30
2023-02-08T11:40:42.798Z,90.20
2023-02-08T11:43:29.078Z,90.30
2023-02-08T11:45:59.812Z,89.70
2023-02-08T11:48:52.165Z,88.60
2023-02-08T11:51:40.276Z,90.30
2023-02-08T11:54:27.984Z,90.10
2023-02-08T11:59:39.553Z,89.30
2023-02-08T12:02:34.825Z,90.20
2023-02-08T12:05:02.806Z,90.60
2023-02-08T12:07:56.231Z,92.60
2023-02-08T12:13:22.633Z,94.80
2023-02-08T12:16:32.989Z,94.00
2023-02-08T12:19:29.012Z,94.20
2023-02-08T12:22:25.301Z,94.50
2023-02-08T12:27:48.662Z,95.10
2023-02-08T12:30:37.552Z,94.50
2023-02-08T12:33:52.840Z,94.20
2023-02-08T12:37:32.225Z,93.70
2023-02-08T12:43:14.910Z,94.10
2023-02-08T12:45:55.325Z,93.60
2023-02-08T12:48:43.602Z,94.50
2023-02-08T12:51:36.577Z,94.10
2023-02-08T12:54:50.207Z,94.80
2023-02-08T13:00:11.884Z,94.80
2023-02-08T13:03:14.445Z,95.10
2023-02-08T13:06:01.320Z,94.90
2023-02-08T13:08:55.698Z,95.80
2023-02-08T13:12:01.960Z,95.60
2023-02-08T13:14:46.285Z,94.90
2023-02-08T13:17:22.991Z,95.70
2023-02-08T13:20:00.680Z,95.00
2023-02-08T13:22:32.280Z,93.40
2023-02-08T13:25:07.526Z,95.00
2023-02-08T13:27:35.946Z,94.60
2023-02-08T13:32:39.142Z,93.60
2023-02-08T13:35:16.142Z,94.00
2023-02-08T13:40:28.174Z,93.80
2023-02-08T13:43:05.182Z,93.80
2023-02-08T13:45:34.419Z,94.80
2023-02-08T13:48:11.683Z,93.50
2023-02-08T13:50:57.387Z,93.90
2023-02-08T13:53:40.831Z,93.40
2023-02-08T13:58:49.557Z,93.90
2023-02-08T14:01:27.854Z,94.20
2023-02-08T14:04:16.875Z,93.90
2023-02-08T14:07:06.816Z,95.10
2023-02-08T14:09:44.184Z,94.40
2023-02-08T14:12:15.150Z,93.60
2023-02-08T14:17:26.732Z,94.80
2023-02-08T14:20:04.485Z,95.00
2023-02-08T14:22:39.258Z,95.70
2023-02-08T14:25:17.847Z,95.70
2023-02-08T14:27:56.408Z,95.80
2023-02-08T14:30:36.410Z,97.20
2023-02-08T14:33:07.531Z,97.30
2023-02-08T14:35:38.025Z,96.30
2023-02-08T14:38:20.748Z,96.90
2023-02-08T14:43:39.539Z,96.80
2023-02-08T14:46:38.067Z,98.20
2023-02-08T14:49:16.935Z,98.20
2023-02-08T14:51:53.678Z,98.60
2023-02-08T14:54:44.786Z,99.40
2023-02-08T14:57:34.696Z,98.90
2023-02-08T15:00:08.459Z,99.70
2023-02-08T15:02:46.977Z,99.70
2023-02-08T15:05:35.322Z,99.60
2023-02-08T15:08:03.507Z,99.00
2023-02-08T15:10:35.170Z,99.10
2023-02-08T15:13:06.910Z,99.00
2023-02-08T15:15:41.566Z,98.70
2023-02-08T15:18:19.023Z,98.90
2023-02-08T15:26:03.414Z,99.90
2023-02-08T15:28:35.005Z,99.90
2023-02-08T15:31:02.489Z,99.90
2023-02-08T15:33:30.063Z,99.90
2023-02-08T15:36:14.818Z,99.90
2023-02-08T15:41:25.715Z,99.90
2023-02-08T15:44:14.489Z,99.70
2023-02-08T15:49:21.538Z,99.90
2023-02-08T15:51:50.640Z,99.90
2023-02-08T15:54:21.712Z,99.90
2023-02-08T15:57:09.289Z,99.90
2023-02-08T15:59:39.957Z,99.90
2023-02-08T16:02:29.789Z,99.90
2023-02-08T16:04:59.610Z,99.90
2023-02-08T16:07:37.338Z,99.90
2023-02-08T16:10:08.448Z,99.90
2023-02-08T16:12:36.716Z,99.90
2023-02-08T16:17:46.503Z,99.90
2023-02-08T16:20:42.407Z,99.90
2023-02-08T16:23:33.344Z,99.90
2023-02-08T16:26:40.486Z,99.90
2023-02-08T16:31:47.847Z,99.90
2023-02-08T16:34:22.843Z,99.90
2023-02-08T16:36:52.343Z,99.90
2023-02-08T16:39:19.666Z,99.90
2023-02-08T16:42:09.625Z,99.90
2023-02-08T16:47:36.130Z,99.90
2023-02-08T16:55:02.350Z,99.90
2023-02-08T16:57:40.508Z,99.90
2023-02-08T17:00:15.385Z,99.90
2023-02-08T17:02:42.906Z,99.90
2023-02-08T17:05:10.446Z,99.90
2023-02-08T17:07:38.114Z,99.90
2023-02-08T17:10:08.636Z,99.90
2023-02-08T17:12:36.196Z,99.90
2023-02-08T17:20:01.595Z,99.90
2023-02-08T17:24:56.795Z,99.90
2023-02-08T17:27:25.038Z,99.90
2023-02-08T17:29:52.905Z,99.90
2023-02-08T17:32:22.653Z,99.90
2023-02-08T17:34:50.317Z,99.90
2023-02-08T17:37:18.221Z,99.90
2023-02-08T17:39:45.800Z,99.90
2023-02-08T17:42:15.776Z,99.90
2023-02-08T17:44:45.689Z,99.90
2023-02-08T17:47:13.135Z,99.90
2023-02-08T17:49:40.589Z,99.90
2023-02-08T17:52:10.842Z,99.90
2023-02-08T17:54:38.394Z,99.90
2023-02-08T17:57:05.950Z,99.90
2023-02-08T18:02:01.525Z,99.90
2023-02-08T18:14:20.851Z,99.90
2023-02-08T18:16:48.542Z,99.90
2023-02-08T18:19:16.053Z,99.90
2023-02-08T18:24:11.967Z,99.90
2023-02-08T18:29:07.653Z,99.90
2023-02-08T18:34:03.005Z,99.90
2023-02-08T18:36:30.419Z,99.90
2023-02-08T18:38:58.374Z,99.90
2023-02-08T18:41:28.054Z,99.90
2023-02-08T18:43:57.703Z,99.90
2023-02-08T18:46:27.622Z,99.90
2023-02-08T18:48:55.681Z,99.90
2023-02-08T18:51:24.833Z,99.90
2023-02-08T18:53:54.760Z,99.90
2023-02-08T18:56:24.157Z,99.90
2023-02-08T18:58:56.418Z,99.90
2023-02-08T19:01:24.874Z,99.90
2023-02-08T19:03:53.445Z,99.90
2023-02-08T19:06:24.947Z,99.90
2023-02-08T19:08:55.673Z,99.90
2023-02-08T19:11:28.672Z,99.90
2023-02-08T19:13:57.997Z,99.90
2023-02-08T19:16:25.871Z,99.90
2023-02-08T19:18:53.631Z,99.90
2023-02-08T19:21:21.080Z,99.90
2023-02-08T19:23:51.931Z,99.90
2023-02-08T19:31:20.329Z,99.90
2023-02-08T19:33:49.975Z,99.90
2023-02-08T19:36:40.425Z,99.90
2023-02-08T19:41:38.289Z,99.90
2023-02-08T19:44:07.475Z,99.90
2023-02-08T19:46:39.044Z,99.90
2023-02-08T19:51:37.134Z,99.70
2023-02-08T19:54:10.251Z,99.90
2023-02-08T19:56:38.275Z,99.90
2023-02-08T19:59:07.922Z,99.90
2023-02-08T20:01:36.305Z,99.70
2023-02-08T20:04:04.269Z,99.90
2023-02-08T20:06:34.864Z,99.90
2023-02-08T20:11:33.373Z,99.60
2023-02-08T20:14:01.268Z,98.40
2023-02-08T20:16:32.064Z,98.60
2023-02-08T20:19:00.026Z,99.70
2023-02-08T20:21:28.031Z,99.90
2023-02-08T20:23:55.595Z,98.90
2023-02-08T20:26:27.853Z,98.50
2023-02-08T20:28:57.361Z,98.90
2023-02-08T20:31:31.612Z,99.60
2023-02-08T20:34:01.137Z,99.10
2023-02-08T20:36:30.496Z,99.00
2023-02-08T20:38:58.929Z,99.20
2023-02-08T20:41:28.202Z,99.60
2023-02-08T20:43:56.025Z,99.80
2023-02-08T20:46:26.162Z,99.90
2023-02-08T20:48:58.121Z,99.90
2023-02-08T20:51:26.193Z,99.90
2023-02-08T20:53:55.013Z,99.90
2023-02-08T20:56:24.899Z,99.90
2023-02-08T20:58:53.711Z,99.90
2023-02-08T21:01:27.140Z,99.90
2023-02-08T21:03:58.505Z,99.90
2023-02-08T21:06:34.484Z,99.90
2023-02-08T21:09:09.146Z,99.90
2023-02-08T21:11:37.448Z,99.90
2023-02-08T21:14:07.299Z,99.90
2023-02-08T21:16:34.865Z,99.90
2023-02-08T21:19:02.649Z,99.90
2023-02-08T21:23:58.284Z,99.90
2023-02-08T21:26:26.629Z,99.90
2023-02-08T21:28:55.208Z,99.90
2023-02-08T21:31:24.206Z,99.90
2023-02-08T21:33:52.479Z,99.90
2023-02-08T21:36:23.069Z,99.90
2023-02-08T21:41:24.155Z,99.90
2023-02-08T21:43:54.380Z,99.90
2023-02-08T21:51:55.586Z,99.90
2023-02-08T21:54:43.415Z,99.90
2023-02-08T21:57:19.656Z,99.90
2023-02-08T21:59:52.471Z,99.90
2023-02-08T22:02:23.488Z,99.90
2023-02-08T22:07:55.301Z,99.90
2023-02-08T22:10:25.487Z,99.90
2023-02-08T22:15:24.795Z,99.90
2023-02-08T22:17:59.257Z,99.90
2023-02-08T22:22:55.554Z,99.90
2023-02-08T22:30:20.254Z,99.90
2023-02-08T22:50:06.892Z,99.90
2023-02-08T22:52:35.292Z,99.90
2023-02-08T22:55:04.280Z,99.90
2023-02-08T22:57:32.661Z,99.90
2023-02-08T23:02:28.203Z,99.90
2023-02-08T23:04:55.787Z,99.90
2023-02-08T23:09:50.920Z,99.90
2023-02-08T23:14:47.105Z,99.90
2023-02-08T23:19:42.636Z,99.90
2023-02-08T23:27:05.892Z,99.90
2023-02-08T23:32:01.214Z,99.90
2023-02-08T23:36:56.648Z,99.90
2023-02-08T23:39:24.618Z,99.90
2023-02-08T23:44:19.933Z,99.90
